createdAt,value
2019-02-25T00:00:34.668Z,103025.92
2019-02-25T00:05:38.129Z,103019.49
2019-02-25T00:10:41.539Z,103030.09
2019-02-25T00:15:44.953Z,103040.06
2019-02-25T00:20:48.368Z,103037.27
2019-02-25T00:25:51.783Z,103030.48
2019-02-25T00:30:55.219Z,103026.13
2019-02-25T00:35:58.643Z,103030.43
2019-02-25T00:41:02.110Z,103016.84
2019-02-25T00:46:05.507Z,103014.52
2019-02-25T00:51:08.953Z,103017.66
2019-02-25T00:56:12.365Z,103010.85
2019-02-25T01:01:15.889Z,103007.48
2019-02-25T01:06:19.302Z,103003.34
2019-02-25T01:11:22.748Z,103002.67
2019-02-25T01:16:26.162Z,102997.30
2019-02-25T01:21:29.585Z,102993.36
2019-02-25T01:26:32.995Z,102985.70
2019-02-25T01:31:36.417Z,102989.91
2019-02-25T01:36:39.989Z,102992.95
2019-02-25T01:41:43.521Z,102991.05
2019-02-25T01:46:46.910Z,102983.87
2019-02-25T01:51:50.324Z,102986.48
2019-02-25T01:56:53.806Z,102977.94
2019-02-25T02:01:57.236Z,102975.63
2019-02-25T02:07:00.676Z,102967.21
2019-02-25T02:12:04.161Z,102968.72
2019-02-25T02:17:07.587Z,102968.92
2019-02-25T02:22:11.107Z,102976.42
2019-02-25T02:27:14.615Z,102978.55
2019-02-25T02:32:18.036Z,102981.00
2019-02-25T02:37:21.486Z,102975.77
2019-02-25T02:42:24.905Z,102974.39
2019-02-25T02:47:52.009Z,102972.37
2019-02-25T02:52:55.430Z,102962.39
2019-02-25T02:57:58.885Z,102964.67
2019-02-25T03:03:02.349Z,102964.69
2019-02-25T03:08:05.755Z,102973.16
2019-02-25T03:13:09.650Z,102970.62
2019-02-25T03:18:13.101Z,102973.05
2019-02-25T03:23:16.535Z,102972.71
2019-02-25T03:28:20.486Z,102963.59
2019-02-25T03:33:24.018Z,102965.34
2019-02-25T03:38:27.430Z,102982.32
2019-02-25T03:43:30.851Z,102969.12
2019-02-25T03:48:34.271Z,102969.15
2019-02-25T03:53:37.736Z,102969.69
2019-02-25T03:58:41.142Z,102972.91
2019-02-25T04:03:44.632Z,102975.65
2019-02-25T04:08:48.047Z,102982.63
2019-02-25T04:13:51.478Z,102976.35
2019-02-25T04:18:54.981Z,102986.52
2019-02-25T04:23:58.423Z,102993.15
2019-02-25T04:29:01.907Z,103001.77
2019-02-25T04:34:05.329Z,103000.64
2019-02-25T04:39:08.752Z,102997.06
2019-02-25T04:44:12.198Z,102997.06
2019-02-25T04:49:15.636Z,102993.53
2019-02-25T04:54:19.065Z,102985.83
2019-02-25T04:59:22.498Z,102990.28
2019-02-25T05:04:25.929Z,102993.18
2019-02-25T05:09:29.376Z,102997.51
2019-02-25T05:14:32.795Z,103008.50
2019-02-25T05:19:36.211Z,102995.65
2019-02-25T05:24:39.668Z,102998.70
2019-02-25T05:29:43.127Z,103003.17
2019-02-25T05:34:46.571Z,102992.32
2019-02-25T05:39:50.013Z,102994.20
2019-02-25T05:44:53.457Z,102984.93
2019-02-25T05:49:56.962Z,102999.61
2019-02-25T05:55:00.431Z,103000.42
2019-02-25T06:00:05.330Z,103009.61
2019-02-25T06:05:08.765Z,103007.53
2019-02-25T06:10:13.630Z,103009.72
2019-02-25T06:15:18.512Z,103008.81
2019-02-25T06:20:22.016Z,103011.91
2019-02-25T06:25:25.503Z,103008.92
2019-02-25T06:30:28.949Z,102996.77
2019-02-25T06:35:32.448Z,102998.62
2019-02-25T06:40:35.894Z,103002.27
2019-02-25T06:45:39.329Z,103006.68
2019-02-25T06:50:42.760Z,103014.73
2019-02-25T06:55:46.195Z,103018.59
2019-02-25T07:00:49.628Z,103027.84
2019-02-25T07:05:57.270Z,103022.94
2019-02-25T07:11:14.097Z,103037.47
2019-02-25T07:16:24.680Z,103026.17
2019-02-25T07:21:29.749Z,103017.28
2019-02-25T07:26:34.820Z,103028.19
2019-02-25T07:31:56.133Z,103023.84
2019-02-25T07:37:13.224Z,103026.84
2019-02-25T07:53:16.313Z,103025.86
2019-02-25T07:58:30.501Z,103030.57
2019-02-25T08:03:44.237Z,103047.28
2019-02-25T08:09:05.302Z,103056.64
2019-02-25T08:14:28.381Z,103066.41
2019-02-25T08:25:15.361Z,103078.59
2019-02-25T08:30:23.376Z,103077.53
2019-02-25T08:36:04.502Z,103076.86
2019-02-25T08:41:11.777Z,103066.84
2019-02-25T08:46:16.868Z,103081.25
2019-02-25T08:51:20.318Z,103084.39
2019-02-25T08:56:23.754Z,103096.50
2019-02-25T09:01:27.178Z,103098.55
2019-02-25T09:06:30.593Z,103097.02
2019-02-25T09:11:34.024Z,103108.21
2019-02-25T09:16:37.441Z,103101.80
2019-02-25T09:21:40.897Z,103098.98
2019-02-25T09:26:44.327Z,103096.29
2019-02-25T09:31:47.770Z,103103.16
2019-02-25T09:36:51.196Z,103099.50
2019-02-25T09:41:54.660Z,103107.30
2019-02-25T09:46:58.163Z,103111.82
2019-02-25T09:52:01.606Z,103093.20
2019-02-25T09:57:05.114Z,103093.34
2019-02-25T10:02:08.563Z,103095.95
2019-02-25T10:07:11.995Z,103081.75
2019-02-25T10:12:15.461Z,103082.03
2019-02-25T10:17:23.796Z,103081.03
2019-02-25T10:22:24.025Z,103080.52
2019-02-25T10:27:27.473Z,103077.44
2019-02-25T10:32:30.912Z,103066.42
2019-02-25T10:37:36.268Z,103064.77
2019-02-25T10:42:39.526Z,103062.21
2019-02-25T10:47:44.248Z,103071.27
2019-02-25T10:52:49.510Z,103063.57
2019-02-25T10:57:54.916Z,103071.67
2019-02-25T11:02:58.398Z,103065.53
2019-02-25T11:08:05.223Z,103060.72
2019-02-25T11:13:08.702Z,103053.90
2019-02-25T11:18:12.144Z,103048.88
2019-02-25T11:23:17.646Z,103050.94
2019-02-25T11:28:25.434Z,103037.21
2019-02-25T11:33:27.903Z,103030.80
2019-02-25T11:38:34.739Z,103023.88
2019-02-25T11:43:36.293Z,103012.09
2019-02-25T11:48:39.730Z,102999.39
2019-02-25T11:53:43.146Z,102995.78
2019-02-25T11:58:46.582Z,102988.12
2019-02-25T12:03:50.146Z,102980.51
2019-02-25T12:08:53.582Z,102963.83
2019-02-25T12:13:57.016Z,102956.27
2019-02-25T12:19:00.457Z,102923.62
2019-02-25T12:24:03.882Z,102923.62
2019-02-25T12:29:10.809Z,102929.64
2019-02-25T12:34:12.543Z,102891.65
2019-02-25T12:39:16.310Z,102891.65
2019-02-25T12:44:19.763Z,102896.27
2019-02-25T12:49:23.193Z,102872.69
2019-02-25T12:54:26.665Z,102872.69
2019-02-25T12:59:30.133Z,102884.74
2019-02-25T13:04:33.584Z,102872.92
2019-02-25T13:09:37.011Z,102877.45
2019-02-25T13:14:40.471Z,102861.71
2019-02-25T13:19:43.865Z,102861.71
2019-02-25T13:24:47.303Z,102862.65
2019-02-25T13:29:50.735Z,102873.05
2019-02-25T13:34:54.153Z,102871.26
2019-02-25T13:39:57.589Z,102864.23
2019-02-25T13:45:01.022Z,102865.44
2019-02-25T13:50:07.678Z,102860.34
2019-02-25T13:55:19.242Z,102842.00
2019-02-25T14:00:24.047Z,102842.00
2019-02-25T14:05:27.568Z,102841.89
2019-02-25T14:10:31.006Z,102846.39
2019-02-25T14:15:34.529Z,102846.39
2019-02-25T14:20:38.217Z,102852.55
2019-02-25T14:25:41.802Z,102858.53
2019-02-25T14:30:45.233Z,102859.98
2019-02-25T14:35:50.281Z,102852.84
2019-02-25T14:40:56.322Z,102849.50
2019-02-25T14:46:01.444Z,102843.90
2019-02-25T14:51:04.729Z,102839.20
2019-02-25T14:56:08.262Z,102852.22
2019-02-25T15:01:11.726Z,102843.86
2019-02-25T15:06:15.174Z,102842.95
2019-02-25T15:11:18.713Z,102844.70
2019-02-25T15:16:22.248Z,102832.88
2019-02-25T15:21:25.798Z,102835.28
2019-02-25T15:26:30.266Z,102843.55
2019-02-25T15:31:33.994Z,102835.53
2019-02-25T15:36:37.595Z,102836.52
2019-02-25T15:41:44.111Z,102844.59
2019-02-25T15:46:46.343Z,102835.73
2019-02-25T15:51:49.812Z,102841.88
2019-02-25T15:56:53.282Z,102832.30
2019-02-25T16:01:56.728Z,102832.78
2019-02-25T16:07:03.848Z,102843.31
2019-02-25T16:12:07.042Z,102849.90
2019-02-25T16:17:10.967Z,102847.74
2019-02-25T16:22:14.455Z,102833.22
2019-02-25T16:27:19.389Z,102831.03
2019-02-25T16:32:24.117Z,102831.45
2019-02-25T16:37:29.144Z,102828.34
2019-02-25T16:42:34.738Z,102822.98
2019-02-25T16:47:39.038Z,102825.85
2019-02-25T16:52:44.996Z,102825.20
2019-02-25T16:57:48.323Z,102826.67
2019-02-25T17:02:51.836Z,102832.97
2019-02-25T17:07:56.260Z,102839.22
2019-02-25T17:12:59.851Z,102836.23
2019-02-25T17:18:03.286Z,102830.96
2019-02-25T17:23:09.562Z,102838.42
2019-02-25T17:28:14.777Z,102841.54
2019-02-25T17:33:17.221Z,102850.66
2019-02-25T17:38:22.607Z,102846.24
2019-02-25T17:43:25.804Z,102850.17
2019-02-25T17:48:29.256Z,102851.33
2019-02-25T17:53:32.851Z,102860.55
2019-02-25T17:58:38.087Z,102865.64
2019-02-25T18:03:43.422Z,102864.23
2019-02-25T18:08:46.865Z,102867.55
2019-02-25T18:13:51.259Z,102867.49
2019-02-25T18:18:56.828Z,102867.96
2019-02-25T18:24:00.732Z,102862.53
2019-02-25T18:29:05.557Z,102853.27
2019-02-25T18:34:11.199Z,102855.70
2019-02-25T18:39:15.393Z,102853.23
2019-02-25T18:44:18.999Z,102847.04
2019-02-25T18:49:22.640Z,102828.12
2019-02-25T18:54:26.078Z,102832.77
2019-02-25T18:59:30.333Z,102827.62
2019-02-25T19:04:34.976Z,102826.80
2019-02-25T19:09:40.842Z,102821.53
2019-02-25T19:14:44.110Z,102830.21
2019-02-25T19:19:51.096Z,102840.30
2019-02-25T19:24:52.763Z,102853.53
2019-02-25T19:29:58.598Z,102853.66
2019-02-25T19:35:04.008Z,102858.07
2019-02-25T19:40:14.417Z,102858.08
2019-02-25T19:45:18.327Z,102864.91
2019-02-25T19:50:22.972Z,102865.03
2019-02-25T19:55:26.406Z,102861.17
2019-02-25T20:00:33.044Z,102862.47
2019-02-25T20:05:38.797Z,102859.32
2019-02-25T20:10:40.436Z,102852.77
2019-02-25T20:15:44.469Z,102844.53
2019-02-25T20:20:49.214Z,102836.30
2019-02-25T20:25:53.573Z,102824.40
2019-02-25T20:30:57.923Z,102822.42
2019-02-25T20:36:03.164Z,102819.72
2019-02-25T20:41:06.607Z,102814.41
2019-02-25T20:46:10.029Z,102810.88
2019-02-25T20:51:13.461Z,102809.89
2019-02-25T20:56:16.891Z,102795.30
2019-02-25T21:01:20.964Z,102797.72
2019-02-25T21:06:24.538Z,102800.04
2019-02-25T21:11:27.962Z,102799.11
2019-02-25T21:16:33.071Z,102811.42
2019-02-25T21:21:37.287Z,102806.98
2019-02-25T21:26:42.202Z,102821.56
2019-02-25T21:31:47.565Z,102818.28
2019-02-25T21:36:52.462Z,102819.91
2019-02-25T21:41:56.069Z,102822.14
2019-02-25T21:47:01.173Z,102823.41
2019-02-25T21:52:06.265Z,102816.93
2019-02-25T21:57:09.954Z,102817.47
2019-02-25T22:02:13.362Z,102820.30
2019-02-25T22:07:19.797Z,102825.28
2019-02-25T22:12:22.015Z,102827.31
2019-02-25T22:17:25.459Z,102818.04
2019-02-25T22:22:31.096Z,102822.64
2019-02-25T22:27:35.297Z,102815.76
2019-02-25T22:32:40.864Z,102813.52
2019-02-25T22:37:47.183Z,102819.02
2019-02-25T22:42:52.094Z,102817.83
2019-02-25T22:47:54.998Z,102816.83
2019-02-25T22:53:00.990Z,102826.36
2019-02-25T22:58:03.576Z,102821.23
2019-02-25T23:03:11.036Z,102817.36
2019-02-25T23:08:13.087Z,102804.16
2019-02-25T23:13:17.784Z,102787.39
2019-02-25T23:18:25.110Z,102791.36
2019-02-25T23:23:28.700Z,102797.31
2019-02-25T23:28:32.872Z,102801.80
2019-02-25T23:33:38.169Z,102796.66
2019-02-25T23:38:41.489Z,102792.41
2019-02-25T23:43:46.657Z,102783.58
2019-02-25T23:48:50.063Z,102787.52
2019-02-25T23:53:55.415Z,102782.89
2019-02-25T23:58:58.629Z,102798.80
